Time;durP1;ratioP1;P1;durP2;ratioP2;P2;SDS_P1;SDS_P2;PMS_P1;PMS_P2;Temp;Humidity;BMP_temperature;BMP_pressure;BME280_temperature;BME280_humidity;BME280_pressure;Samples;Min_cycle;Max_cycle;Signal;HPM_P1;HPM_P2
2022/05/10 00:00:29;;;;;;;21.35;10.27;;;;;;;;;;5059137;28;20317;-65
2022/05/10 00:02:58;;;;;;;16.45;9.57;;;;;;;;;;5064367;28;20196;-65
2022/05/10 00:05:32;;;;;;;23.20;10.50;;;;;;;;;;5064617;28;20187;-66
2022/05/10 00:08:00;;;;;;;17.08;10.02;;;;;;;;;;5066653;28;20169;-65
2022/05/10 00:10:25;;;;;;;16.55;9.98;;;;;;;;;;5066025;28;20176;-66
2022/05/10 00:12:51;;;;;;;18.45;11.43;;;;;;;;;;5062051;28;20176;-65
2022/05/10 00:15:17;;;;;;;19.33;10.90;;;;;;;;;;5066274;28;20176;-65
2022/05/10 00:17:43;;;;;;;15.82;10.52;;;;;;;;;;5059488;28;20197;-65
2022/05/10 00:20:14;;;;;;;20.55;11.85;;;;;;;;;;5065200;28;20363;-65
2022/05/10 00:22:40;;;;;;;19.85;11.18;;;;;;;;;;5060581;28;20217;-65
2022/05/10 00:25:08;;;;;;;18.90;10.80;;;;;;;;;;5058331;28;20219;-65
2022/05/10 00:27:34;;;;;;;21.52;12.18;;;;;;;;;;5066795;28;20237;-65
2022/05/10 00:30:00;;;;;;;20.08;11.43;;;;;;;;;;5060293;28;20306;-65
2022/05/10 00:32:29;;;;;;;20.77;12.73;;;;;;;;;;5062623;28;20220;-65
2022/05/10 00:34:54;;;;;;;17.75;11.18;;;;;;;;;;5056557;28;20306;-65
2022/05/10 00:37:21;;;;;;;19.55;12.05;;;;;;;;;;5065448;28;20275;-65
2022/05/10 00:39:47;;;;;;;26.38;11.85;;;;;;;;;;5063520;28;20177;-65
2022/05/10 00:42:22;;;;;;;18.15;12.07;;;;;;;;;;5061179;28;20227;-65
2022/05/10 00:44:58;;;;;;;18.15;11.57;;;;;;;;;;5066468;28;20196;-65
2022/05/10 00:47:35;;;;;;;17.98;11.80;;;;;;;;;;5063493;28;20299;-65
2022/05/10 00:50:18;;;;;;;19.52;11.65;;;;;;;;;;5052926;28;20216;-65
2022/05/10 00:52:51;;;;;;;21.17;11.85;;;;;;;;;;5064197;28;20196;-65
2022/05/10 00:55:21;;;;;;;23.88;12.40;;;;;;;;;;5062486;28;20569;-65
2022/05/10 00:58:04;;;;;;;22.05;12.85;;;;;;;;;;5050553;28;20251;-65
2022/05/10 01:00:31;;;;;;;22.10;13.20;;;;;;;;;;5062463;28;20191;-65
2022/05/10 01:02:59;;;;;;;19.88;12.55;;;;;;;;;;5065447;28;20268;-65
2022/05/10 01:05:38;;;;;;;19.65;13.27;;;;;;;;;;5060637;28;20671;-65
2022/05/10 01:08:21;;;;;;;22.13;12.80;;;;;;;;;;5064176;28;20244;-65
2022/05/10 01:11:03;;;;;;;18.52;11.68;;;;;;;;;;5061506;28;20276;-65
2022/05/10 01:13:42;;;;;;;20.00;11.93;;;;;;;;;;5066504;28;20670;-65
2022/05/10 01:16:11;;;;;;;22.00;12.95;;;;;;;;;;5064651;28;20197;-65
2022/05/10 01:18:38;;;;;;;23.83;13.82;;;;;;;;;;5065868;28;20208;-65
2022/05/10 01:21:36;;;;;;;25.08;13.45;;;;;;;;;;5064635;28;20676;-65
2022/05/10 01:24:21;;;;;;;20.52;13.38;;;;;;;;;;5053607;28;20343;-66
2022/05/10 01:26:58;;;;;;;19.85;12.65;;;;;;;;;;5056435;28;20184;-65
2022/05/10 01:29:31;;;;;;;19.90;14.57;;;;;;;;;;5064251;28;20184;-65
2022/05/10 01:34:52;;;;;;;23.85;15.50;;;;;;;;;;5064117;28;20199;-65
2022/05/10 01:37:22;;;;;;;22.85;13.98;;;;;;;;;;5057184;28;20177;-65
2022/05/10 01:40:22;;;;;;;22.10;15.13;;;;;;;;;;5065091;28;20184;-65
2022/05/10 01:42:53;;;;;;;23.52;14.10;;;;;;;;;;5055646;28;20560;-65
2022/05/10 01:45:30;;;;;;;20.25;14.13;;;;;;;;;;5068450;28;20531;-65
2022/05/10 01:47:59;;;;;;;21.17;13.93;;;;;;;;;;5068904;28;20177;-64
2022/05/10 01:50:39;;;;;;;21.42;14.93;;;;;;;;;;5067115;28;20184;-65
2022/05/10 01:53:13;;;;;;;20.42;14.13;;;;;;;;;;5070624;28;20815;-67
2022/05/10 01:55:42;;;;;;;24.60;14.68;;;;;;;;;;5066199;28;20215;-65
2022/05/10 01:58:17;;;;;;;27.85;16.35;;;;;;;;;;5069623;28;20692;-65
2022/05/10 02:00:52;;;;;;;26.23;16.13;;;;;;;;;;5060703;28;20691;-66
2022/05/10 02:03:36;;;;;;;26.42;15.75;;;;;;;;;;5068370;28;20187;-65
2022/05/10 02:06:12;;;;;;;23.13;17.02;;;;;;;;;;5064687;28;20184;-65
2022/05/10 02:08:49;;;;;;;26.55;16.55;;;;;;;;;;5067771;28;20592;-66
2022/05/10 02:11:16;;;;;;;21.67;15.90;;;;;;;;;;5057929;28;20653;-65
2022/05/10 02:13:48;;;;;;;26.30;16.08;;;;;;;;;;5063736;28;20188;-65
2022/05/10 02:16:24;;;;;;;25.38;17.35;;;;;;;;;;5062231;28;20622;-66
2022/05/10 02:19:08;;;;;;;24.67;17.98;;;;;;;;;;5059610;28;20199;-65
2022/05/10 02:21:39;;;;;;;26.67;17.42;;;;;;;;;;5068990;28;20253;-65
2022/05/10 02:24:28;;;;;;;26.45;18.83;;;;;;;;;;5062459;28;20680;-66
2022/05/10 02:27:18;;;;;;;23.40;18.13;;;;;;;;;;5062686;28;20181;-66
2022/05/10 02:29:48;;;;;;;29.77;18.75;;;;;;;;;;5068029;28;20189;-66
2022/05/10 02:35:18;;;;;;;27.27;18.30;;;;;;;;;;5025789;28;20573;-66
2022/05/10 02:37:44;;;;;;;35.60;19.63;;;;;;;;;;5056424;28;20192;-66
2022/05/10 02:40:10;;;;;;;26.77;18.40;;;;;;;;;;5061208;28;20268;-66
2022/05/10 02:42:36;;;;;;;29.77;19.75;;;;;;;;;;5064840;28;20219;-66
2022/05/10 02:45:03;;;;;;;23.42;17.88;;;;;;;;;;5065486;28;20548;-67
2022/05/10 02:47:37;;;;;;;26.65;18.95;;;;;;;;;;5057660;28;20185;-66
2022/05/10 02:50:11;;;;;;;30.25;18.58;;;;;;;;;;5068349;28;20573;-66
2022/05/10 02:52:36;;;;;;;30.83;19.15;;;;;;;;;;5063240;28;20535;-66
2022/05/10 02:55:08;;;;;;;28.02;19.58;;;;;;;;;;5063925;28;20173;-66
2022/05/10 02:57:34;;;;;;;28.52;19.08;;;;;;;;;;5065763;28;20212;-66
2022/05/10 03:00:03;;;;;;;32.10;19.55;;;;;;;;;;5068140;28;20204;-66
2022/05/10 03:02:37;;;;;;;30.67;20.55;;;;;;;;;;5052285;28;20219;-66
2022/05/10 03:05:04;;;;;;;31.00;19.73;;;;;;;;;;5066813;28;20211;-66
2022/05/10 03:07:30;;;;;;;30.13;19.83;;;;;;;;;;5066270;28;20185;-66
2022/05/10 03:09:55;;;;;;;28.67;20.25;;;;;;;;;;5066909;28;20312;-66
2022/05/10 03:12:21;;;;;;;26.20;20.08;;;;;;;;;;5061335;28;20178;-66
2022/05/10 03:14:46;;;;;;;29.13;21.08;;;;;;;;;;5062172;28;20197;-66
2022/05/10 03:17:12;;;;;;;32.60;21.15;;;;;;;;;;5084630;28;20188;-66
2022/05/10 03:19:39;;;;;;;27.58;18.70;;;;;;;;;;5068283;28;20189;-66
2022/05/10 03:22:05;;;;;;;30.95;19.98;;;;;;;;;;5062476;28;20212;-66
2022/05/10 03:24:31;;;;;;;27.30;19.60;;;;;;;;;;5064041;28;20190;-66
2022/05/10 03:26:58;;;;;;;34.75;21.23;;;;;;;;;;5067343;28;20181;-66
2022/05/10 03:29:25;;;;;;;27.63;20.63;;;;;;;;;;5065387;28;20232;-66
2022/05/10 03:31:51;;;;;;;30.67;21.27;;;;;;;;;;5062997;28;20283;-66
2022/05/10 03:37:00;;;;;;;29.55;21.40;;;;;;;;;;5061832;28;20231;-66
2022/05/10 03:39:25;;;;;;;28.63;21.20;;;;;;;;;;5068090;28;20230;-66
2022/05/10 03:41:51;;;;;;;33.88;21.40;;;;;;;;;;5065466;28;20197;-66
2022/05/10 03:44:16;;;;;;;29.13;21.83;;;;;;;;;;5054208;28;20185;-66
2022/05/10 03:46:45;;;;;;;32.20;22.00;;;;;;;;;;5066882;28;20193;-66
2022/05/10 03:49:10;;;;;;;30.98;21.88;;;;;;;;;;5066617;28;20188;-66
2022/05/10 03:51:36;;;;;;;36.80;22.15;;;;;;;;;;5057238;28;20652;-66
2022/05/10 03:54:01;;;;;;;29.13;21.33;;;;;;;;;;5065945;28;20199;-66
2022/05/10 03:56:26;;;;;;;34.75;22.17;;;;;;;;;;5065785;28;20187;-65
2022/05/10 03:58:52;;;;;;;29.58;21.88;;;;;;;;;;5066864;28;20181;-65
2022/05/10 04:01:19;;;;;;;31.48;21.33;;;;;;;;;;5064825;28;20287;-65
2022/05/10 04:03:45;;;;;;;30.23;21.92;;;;;;;;;;5064773;28;20192;-65
2022/05/10 04:06:11;;;;;;;36.80;22.58;;;;;;;;;;5063235;28;20176;-65
2022/05/10 04:08:36;;;;;;;32.38;21.48;;;;;;;;;;5066548;28;20232;-65
2022/05/10 04:11:08;;;;;;;30.92;21.08;;;;;;;;;;5066430;28;20274;-66
2022/05/10 04:13:33;;;;;;;32.25;22.25;;;;;;;;;;5064258;28;20293;-66
2022/05/10 04:15:59;;;;;;;31.95;22.42;;;;;;;;;;5063927;28;20200;-65
2022/05/10 04:18:25;;;;;;;32.75;21.00;;;;;;;;;;5066777;28;20195;-66
2022/05/10 04:20:50;;;;;;;35.05;22.92;;;;;;;;;;5064593;28;20283;-66
2022/05/10 04:23:16;;;;;;;32.25;22.42;;;;;;;;;;5064858;28;20631;-65
2022/05/10 04:25:42;;;;;;;39.53;23.98;;;;;;;;;;5064459;28;20755;-66
2022/05/10 04:28:07;;;;;;;32.22;22.50;;;;;;;;;;5066527;28;20263;-65
2022/05/10 04:30:32;;;;;;;31.05;22.58;;;;;;;;;;5064186;28;20191;-65
2022/05/10 04:32:58;;;;;;;30.90;22.73;;;;;;;;;;5063347;28;20188;-65
2022/05/10 04:35:23;;;;;;;33.40;22.77;;;;;;;;;;5063803;28;20199;-65
2022/05/10 04:37:49;;;;;;;33.50;22.70;;;;;;;;;;5066984;28;20184;-66
2022/05/10 04:42:58;;;;;;;30.98;22.60;;;;;;;;;;5063859;28;20284;-66
2022/05/10 04:45:24;;;;;;;30.88;22.38;;;;;;;;;;5081382;28;20298;-65
2022/05/10 04:47:49;;;;;;;33.45;22.60;;;;;;;;;;5065269;28;20188;-65
2022/05/10 04:50:15;;;;;;;31.02;21.98;;;;;;;;;;5065023;28;20212;-66
2022/05/10 04:52:40;;;;;;;33.63;22.67;;;;;;;;;;5059645;28;20213;-65
2022/05/10 04:55:08;;;;;;;30.83;21.27;;;;;;;;;;5064961;28;20222;-66
2022/05/10 04:57:35;;;;;;;28.83;21.02;;;;;;;;;;5080223;28;20263;-65
2022/05/10 05:00:00;;;;;;;28.40;20.33;;;;;;;;;;5062836;28;20284;-66
2022/05/10 05:02:26;;;;;;;29.13;20.90;;;;;;;;;;5058545;28;20283;-66
2022/05/10 05:04:51;;;;;;;32.55;19.75;;;;;;;;;;5058680;28;20211;-66
2022/05/10 05:07:16;;;;;;;29.90;19.52;;;;;;;;;;5058155;28;20576;-65
2022/05/10 05:09:43;;;;;;;32.78;21.77;;;;;;;;;;5056391;28;20232;-66
2022/05/10 05:12:09;;;;;;;33.42;22.65;;;;;;;;;;5061461;28;20172;-65
2022/05/10 05:14:35;;;;;;;30.15;20.63;;;;;;;;;;5061275;28;20193;-66
2022/05/10 05:17:00;;;;;;;29.67;20.63;;;;;;;;;;5055459;28;20324;-66
2022/05/10 05:19:26;;;;;;;32.45;21.67;;;;;;;;;;5062369;28;20189;-66
2022/05/10 05:21:51;;;;;;;32.22;22.85;;;;;;;;;;5059345;28;20304;-66
2022/05/10 05:24:16;;;;;;;28.60;20.42;;;;;;;;;;5060901;28;20188;-66
2022/05/10 05:26:42;;;;;;;39.88;22.73;;;;;;;;;;5064834;28;20241;-66
2022/05/10 05:29:07;;;;;;;30.40;20.95;;;;;;;;;;5062793;28;20191;-66
2022/05/10 05:31:33;;;;;;;31.38;20.38;;;;;;;;;;5059505;28;20250;-66
2022/05/10 05:33:58;;;;;;;33.83;21.65;;;;;;;;;;5063956;28;20188;-66
2022/05/10 05:36:24;;;;;;;34.85;20.83;;;;;;;;;;5063392;28;20522;-66
2022/05/10 05:38:50;;;;;;;30.75;21.00;;;;;;;;;;5061932;28;20188;-66
2022/05/10 05:41:17;;;;;;;33.85;20.17;;;;;;;;;;5055413;28;20205;-66
2022/05/10 05:43:42;;;;;;;30.17;20.45;;;;;;;;;;5062786;28;20193;-66
2022/05/10 05:46:08;;;;;;;26.30;19.38;;;;;;;;;;5065263;28;20354;-66
2022/05/10 05:48:33;;;;;;;28.05;20.95;;;;;;;;;;5064509;28;20292;-67
2022/05/10 05:50:58;;;;;;;30.70;20.00;;;;;;;;;;5051834;28;20266;-66
2022/05/10 05:53:26;;;;;;;29.35;20.52;;;;;;;;;;5064222;28;20230;-66
2022/05/10 05:55:53;;;;;;;28.05;20.48;;;;;;;;;;5067634;28;20212;-66
2022/05/10 05:58:18;;;;;;;33.45;19.77;;;;;;;;;;5066201;28;20293;-66
2022/05/10 06:00:44;;;;;;;30.65;19.52;;;;;;;;;;5068461;28;20212;-66
2022/05/10 06:03:10;;;;;;;29.75;19.77;;;;;;;;;;5066058;28;20187;-66
2022/05/10 06:05:36;;;;;;;28.08;19.42;;;;;;;;;;5063270;28;20281;-66
2022/05/10 06:08:03;;;;;;;27.05;19.48;;;;;;;;;;5068713;28;20657;-66
2022/05/10 06:10:29;;;;;;;28.80;19.35;;;;;;;;;;5064581;28;20625;-66
2022/05/10 06:12:54;;;;;;;29.50;19.45;;;;;;;;;;5066694;28;20238;-66
2022/05/10 06:15:22;;;;;;;31.63;20.20;;;;;;;;;;5069133;28;20208;-66
2022/05/10 06:17:48;;;;;;;30.33;18.25;;;;;;;;;;5068547;28;20624;-66
2022/05/10 06:20:18;;;;;;;27.52;19.75;;;;;;;;;;5068331;28;20170;-66
2022/05/10 06:22:45;;;;;;;25.30;18.20;;;;;;;;;;5067062;28;20278;-67
2022/05/10 06:25:17;;;;;;;31.52;19.65;;;;;;;;;;5067301;28;20175;-66
2022/05/10 06:27:43;;;;;;;28.52;19.73;;;;;;;;;;5066374;28;20172;-67
2022/05/10 06:30:10;;;;;;;30.15;19.27;;;;;;;;;;5063596;28;20177;-67
2022/05/10 06:32:35;;;;;;;26.23;18.58;;;;;;;;;;5063285;28;20759;-66
2022/05/10 06:35:01;;;;;;;27.65;19.60;;;;;;;;;;5063872;28;20587;-67
2022/05/10 06:40:14;;;;;;;28.52;18.35;;;;;;;;;;5063301;28;20242;-66
2022/05/10 06:42:40;;;;;;;30.38;19.10;;;;;;;;;;5064923;28;20205;-66
2022/05/10 06:45:09;;;;;;;32.60;18.75;;;;;;;;;;5067150;28;20177;-66
2022/05/10 06:47:37;;;;;;;32.08;18.45;;;;;;;;;;5061389;28;20189;-66
2022/05/10 06:50:03;;;;;;;24.27;17.98;;;;;;;;;;5063080;28;20496;-66
2022/05/10 06:52:28;;;;;;;24.90;16.50;;;;;;;;;;5060877;28;20177;-66
2022/05/10 06:54:56;;;;;;;29.27;18.83;;;;;;;;;;5064632;28;20636;-66
2022/05/10 06:57:21;;;;;;;26.05;17.88;;;;;;;;;;5063285;28;20270;-66
2022/05/10 06:59:46;;;;;;;25.05;16.80;;;;;;;;;;5067980;28;20253;-66
2022/05/10 07:02:12;;;;;;;24.60;15.95;;;;;;;;;;5060278;28;20204;-66
2022/05/10 07:04:37;;;;;;;27.10;17.08;;;;;;;;;;5067407;28;20215;-66
2022/05/10 07:07:02;;;;;;;28.40;15.73;;;;;;;;;;5066201;28;20324;-67
2022/05/10 07:09:28;;;;;;;24.10;16.50;;;;;;;;;;5066722;28;20658;-66
2022/05/10 07:11:53;;;;;;;27.35;16.05;;;;;;;;;;5065865;28;20207;-71
2022/05/10 07:14:20;;;;;;;20.23;15.27;;;;;;;;;;5065973;28;20238;-68
2022/05/10 07:16:45;;;;;;;22.95;14.43;;;;;;;;;;5065161;28;20180;-67
2022/05/10 07:19:11;;;;;;;21.25;13.95;;;;;;;;;;5067832;28;20545;-68
2022/05/10 07:21:36;;;;;;;25.48;15.60;;;;;;;;;;5067963;28;20212;-69
2022/05/10 07:24:01;;;;;;;19.27;14.20;;;;;;;;;;5063622;28;20275;-69
2022/05/10 07:26:27;;;;;;;22.20;13.95;;;;;;;;;;5061553;28;20672;-66
2022/05/10 07:28:52;;;;;;;21.05;13.52;;;;;;;;;;5061434;28;20189;-68
2022/05/10 07:31:18;;;;;;;23.45;14.93;;;;;;;;;;5064596;28;20199;-66
2022/05/10 07:33:43;;;;;;;21.40;14.02;;;;;;;;;;5067669;28;20652;-70
2022/05/10 07:36:28;;;;;;;24.42;14.48;;;;;;;;;;5066266;28;20212;-69
2022/05/10 07:38:54;;;;;;;25.10;13.68;;;;;;;;;;5063674;28;20705;-68
2022/05/10 07:41:22;;;;;;;22.42;14.07;;;;;;;;;;5066149;28;20295;-67
2022/05/10 07:43:50;;;;;;;21.23;14.00;;;;;;;;;;5067506;28;20192;-69
2022/05/10 07:46:16;;;;;;;24.33;14.23;;;;;;;;;;5067734;28;20181;-67
2022/05/10 07:48:42;;;;;;;18.95;13.57;;;;;;;;;;5067659;28;20185;-67
2022/05/10 07:51:08;;;;;;;21.92;13.77;;;;;;;;;;5067145;28;20730;-68
2022/05/10 07:53:35;;;;;;;21.70;13.63;;;;;;;;;;5067924;28;20264;-68
2022/05/10 07:56:00;;;;;;;20.38;13.00;;;;;;;;;;5080528;28;20268;-70
2022/05/10 07:58:26;;;;;;;18.35;12.68;;;;;;;;;;5066118;28;20260;-67
2022/05/10 08:00:51;;;;;;;18.77;12.90;;;;;;;;;;5064556;28;20209;-69
2022/05/10 08:03:20;;;;;;;20.70;14.00;;;;;;;;;;5065265;28;20224;-69
2022/05/10 08:05:46;;;;;;;22.35;13.77;;;;;;;;;;5067206;28;20558;-67
2022/05/10 08:08:12;;;;;;;16.75;12.27;;;;;;;;;;5067273;28;20180;-67
2022/05/10 08:10:39;;;;;;;16.52;12.13;;;;;;;;;;5067796;28;20259;-69
2022/05/10 08:13:10;;;;;;;17.50;11.80;;;;;;;;;;5066389;28;20299;-68
2022/05/10 08:15:36;;;;;;;17.25;11.88;;;;;;;;;;5068257;28;20176;-70
2022/05/10 08:18:01;;;;;;;17.65;12.45;;;;;;;;;;5066927;28;20583;-67
2022/05/10 08:20:26;;;;;;;16.60;11.38;;;;;;;;;;5068016;28;20563;-68
2022/05/10 08:22:52;;;;;;;20.65;12.50;;;;;;;;;;5067120;28;20200;-67
2022/05/10 08:25:17;;;;;;;15.05;11.00;;;;;;;;;;5064258;28;20200;-68
2022/05/10 08:27:42;;;;;;;17.02;11.43;;;;;;;;;;5066256;28;20181;-67
2022/05/10 08:30:08;;;;;;;15.93;11.38;;;;;;;;;;5066954;28;20216;-68
2022/05/10 08:32:34;;;;;;;19.80;11.75;;;;;;;;;;5067317;28;20216;-67
2022/05/10 08:35:00;;;;;;;14.93;10.40;;;;;;;;;;5066628;28;20529;-67
2022/05/10 08:37:25;;;;;;;16.90;10.82;;;;;;;;;;5066701;28;20705;-67
2022/05/10 08:39:50;;;;;;;15.63;10.50;;;;;;;;;;5067234;28;20189;-71
2022/05/10 08:42:23;;;;;;;17.23;10.88;;;;;;;;;;5064636;28;20613;-70
2022/05/10 08:45:00;;;;;;;16.45;10.20;;;;;;;;;;5066649;28;20237;-68
2022/05/10 08:47:27;;;;;;;15.35;10.00;;;;;;;;;;5064612;28;20233;-69
2022/05/10 08:50:09;;;;;;;18.35;9.57;;;;;;;;;;5062010;28;20179;-68
2022/05/10 08:52:39;;;;;;;14.32;9.20;;;;;;;;;;5064366;28;20211;-72
2022/05/10 08:55:08;;;;;;;16.58;8.85;;;;;;;;;;5066065;28;20192;-68
2022/05/10 08:57:46;;;;;;;14.68;9.23;;;;;;;;;;5064254;28;20224;-68
2022/05/10 09:00:16;;;;;;;13.00;9.23;;;;;;;;;;5066776;28;20187;-71
2022/05/10 09:02:47;;;;;;;14.20;9.00;;;;;;;;;;5064157;28;20632;-68
2022/05/10 09:05:28;;;;;;;12.55;8.73;;;;;;;;;;5067211;28;20512;-71
2022/05/10 09:07:59;;;;;;;10.50;8.65;;;;;;;;;;5064184;28;20189;-70
2022/05/10 09:10:50;;;;;;;12.88;8.80;;;;;;;;;;5064841;28;20173;-70
2022/05/10 09:13:17;;;;;;;12.93;8.25;;;;;;;;;;5064365;28;20173;-70
2022/05/10 09:15:51;;;;;;;11.40;8.30;;;;;;;;;;5066401;28;20234;-66
2022/05/10 09:18:30;;;;;;;14.57;8.45;;;;;;;;;;5065905;28;20211;-70
2022/05/10 09:21:11;;;;;;;12.77;8.80;;;;;;;;;;5066647;28;20672;-67
2022/05/10 09:23:58;;;;;;;9.35;7.82;;;;;;;;;;5066748;28;20208;-68
2022/05/10 09:26:30;;;;;;;8.60;7.60;;;;;;;;;;5066364;28;20581;-66
2022/05/10 09:29:16;;;;;;;11.05;8.10;;;;;;;;;;5063518;28;20572;-68
2022/05/10 09:34:46;;;;;;;12.20;6.53;;;;;;;;;;5070695;28;20198;-69
2022/05/10 09:37:26;;;;;;;11.45;7.70;;;;;;;;;;5070246;28;20260;-69
2022/05/10 09:39:57;;;;;;;16.52;7.47;;;;;;;;;;5069692;28;20554;-67
2022/05/10 09:42:44;;;;;;;13.48;7.60;;;;;;;;;;5067796;28;20212;-70
2022/05/10 09:45:16;;;;;;;13.75;7.30;;;;;;;;;;5069169;28;20191;-69
2022/05/10 09:48:09;;;;;;;9.60;6.75;;;;;;;;;;5066304;28;20319;-68
2022/05/10 09:50:36;;;;;;;10.05;6.85;;;;;;;;;;5085761;28;20540;-69
2022/05/10 09:53:25;;;;;;;11.15;7.03;;;;;;;;;;5067472;28;20580;-69
2022/05/10 09:55:58;;;;;;;8.57;7.20;;;;;;;;;;5070232;28;20247;-70
2022/05/10 09:58:28;;;;;;;9.32;7.03;;;;;;;;;;5066709;28;20249;-68
2022/05/10 10:00:55;;;;;;;10.00;6.30;;;;;;;;;;5067567;28;20280;-71
2022/05/10 10:03:26;;;;;;;8.65;6.38;;;;;;;;;;5081479;28;20234;-68
2022/05/10 10:05:52;;;;;;;10.18;6.47;;;;;;;;;;5068819;28;20220;-67
2022/05/10 10:08:17;;;;;;;13.77;6.80;;;;;;;;;;5082870;28;20225;-69
2022/05/10 10:10:42;;;;;;;9.32;6.57;;;;;;;;;;5069303;28;20230;-67
2022/05/10 10:13:29;;;;;;;11.57;7.90;;;;;;;;;;5067171;28;20234;-67
2022/05/10 10:15:54;;;;;;;11.55;6.68;;;;;;;;;;5069514;28;20207;-69
2022/05/10 10:18:45;;;;;;;7.95;6.40;;;;;;;;;;5066950;28;20217;-66
2022/05/10 10:21:16;;;;;;;11.98;6.35;;;;;;;;;;5067441;28;20288;-68
2022/05/10 10:23:50;;;;;;;11.68;6.57;;;;;;;;;;5068744;28;20208;-67
2022/05/10 10:26:19;;;;;;;11.60;6.97;;;;;;;;;;5070799;28;20736;-68
2022/05/10 10:28:55;;;;;;;9.20;6.68;;;;;;;;;;5056595;28;20181;-69
2022/05/10 10:31:28;;;;;;;8.77;7.05;;;;;;;;;;5069659;28;20702;-67
2022/05/10 10:34:04;;;;;;;9.75;6.10;;;;;;;;;;5066264;28;20276;-70
2022/05/10 10:37:04;;;;;;;11.60;7.10;;;;;;;;;;5068841;28;20279;-67
2022/05/10 10:39:34;;;;;;;8.60;6.00;;;;;;;;;;5011901;28;20189;-67
2022/05/10 10:42:14;;;;;;;7.55;6.40;;;;;;;;;;5062911;28;20208;-67
2022/05/10 10:44:53;;;;;;;8.10;5.68;;;;;;;;;;5059109;28;20191;-67
2022/05/10 10:47:28;;;;;;;7.15;5.72;;;;;;;;;;5066922;28;20214;-67
2022/05/10 10:50:09;;;;;;;10.38;6.07;;;;;;;;;;5067685;28;20293;-68
2022/05/10 10:52:35;;;;;;;9.93;5.95;;;;;;;;;;5067856;28;20271;-70
2022/05/10 10:55:03;;;;;;;7.60;6.32;;;;;;;;;;5068059;28;20272;-69
2022/05/10 10:57:49;;;;;;;6.82;5.88;;;;;;;;;;5068084;28;20176;-70
2022/05/10 11:00:20;;;;;;;6.70;5.63;;;;;;;;;;5061895;28;20192;-69
2022/05/10 11:02:57;;;;;;;9.48;5.85;;;;;;;;;;5068131;28;20722;-68
2022/05/10 11:05:25;;;;;;;8.50;5.47;;;;;;;;;;5062854;28;20523;-70
2022/05/10 11:08:11;;;;;;;9.13;6.15;;;;;;;;;;5067862;28;20607;-70
2022/05/10 11:11:18;;;;;;;7.63;5.95;;;;;;;;;;5062625;28;20265;-70
2022/05/10 11:14:00;;;;;;;10.25;5.68;;;;;;;;;;5069205;28;20512;-66
2022/05/10 11:16:42;;;;;;;11.75;6.03;;;;;;;;;;5068853;28;20169;-70
2022/05/10 11:19:29;;;;;;;10.38;5.90;;;;;;;;;;5069260;28;20525;-70
2022/05/10 11:22:30;;;;;;;10.43;5.65;;;;;;;;;;5068945;28;20200;-70
2022/05/10 11:25:39;;;;;;;6.05;5.10;;;;;;;;;;5069721;28;20192;-70
2022/05/10 11:28:41;;;;;;;7.25;5.80;;;;;;;;;;5037523;28;20205;-68
2022/05/10 11:31:52;;;;;;;9.93;6.30;;;;;;;;;;5066466;28;20512;-68
2022/05/10 11:34:28;;;;;;;10.15;5.13;;;;;;;;;;5027682;28;20204;-69
2022/05/10 11:36:58;;;;;;;8.70;5.15;;;;;;;;;;5065830;28;20268;-68
2022/05/10 11:40:04;;;;;;;8.25;4.90;;;;;;;;;;5063900;28;20172;-69
2022/05/10 11:42:57;;;;;;;9.07;5.00;;;;;;;;;;5067362;28;20200;-70
2022/05/10 11:45:49;;;;;;;8.75;5.20;;;;;;;;;;5066275;28;20181;-70
2022/05/10 11:48:56;;;;;;;11.90;4.97;;;;;;;;;;5064193;28;20195;-69
2022/05/10 11:51:39;;;;;;;10.32;4.90;;;;;;;;;;5065207;28;20180;-68
2022/05/10 11:54:29;;;;;;;8.50;4.30;;;;;;;;;;5064232;28;20660;-68
2022/05/10 11:56:55;;;;;;;6.40;4.38;;;;;;;;;;5057904;28;20184;-70
2022/05/10 11:59:31;;;;;;;8.95;5.35;;;;;;;;;;5066524;28;20176;-69
2022/05/10 12:01:58;;;;;;;9.55;4.95;;;;;;;;;;5061563;28;20683;-69
2022/05/10 12:04:41;;;;;;;8.48;5.03;;;;;;;;;;5063298;28;20699;-70
2022/05/10 12:07:23;;;;;;;12.60;4.75;;;;;;;;;;5066758;28;20185;-70
2022/05/10 12:09:52;;;;;;;10.05;5.30;;;;;;;;;;5064916;28;20606;-66
2022/05/10 12:12:32;;;;;;;8.13;4.63;;;;;;;;;;5060200;28;20220;-68
2022/05/10 12:24:11;;;;;;;10.85;5.13;;;;;;;;;;5068028;28;20748;-68
2022/05/10 12:26:46;;;;;;;6.35;5.03;;;;;;;;;;5063998;28;20198;-67
2022/05/10 12:29:36;;;;;;;11.02;5.80;;;;;;;;;;5067456;28;20254;-69
2022/05/10 12:32:01;;;;;;;7.15;4.95;;;;;;;;;;5061189;28;20326;-69
2022/05/10 12:34:57;;;;;;;5.90;4.82;;;;;;;;;;5067812;28;20183;-68
2022/05/10 12:37:24;;;;;;;8.55;5.18;;;;;;;;;;5060981;28;20256;-70
2022/05/10 12:39:56;;;;;;;5.80;4.72;;;;;;;;;;5061970;28;20185;-71
2022/05/10 12:42:46;;;;;;;6.13;4.47;;;;;;;;;;5067541;28;20261;-68
2022/05/10 12:45:36;;;;;;;9.27;4.68;;;;;;;;;;5068144;28;20255;-68
2022/05/10 12:48:26;;;;;;;14.20;5.13;;;;;;;;;;5066338;28;20612;-70
2022/05/10 12:51:15;;;;;;;13.70;4.65;;;;;;;;;;5068006;28;20182;-68
2022/05/10 12:54:00;;;;;;;9.68;5.00;;;;;;;;;;5065243;28;20215;-69
2022/05/10 12:56:31;;;;;;;9.70;4.55;;;;;;;;;;5067359;28;20179;-68
2022/05/10 12:59:10;;;;;;;8.63;4.22;;;;;;;;;;5067013;28;20184;-70
2022/05/10 13:01:37;;;;;;;11.90;4.72;;;;;;;;;;5067377;28;20287;-69
2022/05/10 13:04:23;;;;;;;7.82;5.10;;;;;;;;;;5066287;28;20238;-69
2022/05/10 13:07:00;;;;;;;11.73;4.70;;;;;;;;;;5068918;28;20192;-70
2022/05/10 13:09:30;;;;;;;10.18;4.75;;;;;;;;;;5070797;28;20269;-69
2022/05/10 13:12:01;;;;;;;9.27;4.53;;;;;;;;;;5070602;28;20600;-70
2022/05/10 13:14:30;;;;;;;5.85;4.05;;;;;;;;;;5070997;28;20223;-67
2022/05/10 13:16:56;;;;;;;4.95;4.30;;;;;;;;;;5068274;28;20192;-69
2022/05/10 13:19:23;;;;;;;12.73;4.75;;;;;;;;;;5069396;28;20180;-70
2022/05/10 13:21:49;;;;;;;7.10;4.47;;;;;;;;;;5069545;28;20249;-68
2022/05/10 13:24:18;;;;;;;10.23;5.03;;;;;;;;;;5068445;28;20255;-70
2022/05/10 13:26:56;;;;;;;12.48;4.80;;;;;;;;;;5066161;28;20556;-68
2022/05/10 13:29:55;;;;;;;10.65;4.40;;;;;;;;;;5069450;28;20207;-67
2022/05/10 13:32:31;;;;;;;7.60;4.93;;;;;;;;;;5026363;28;20208;-68
2022/05/10 13:35:07;;;;;;;8.27;4.82;;;;;;;;;;5067662;28;20726;-70
2022/05/10 13:37:35;;;;;;;7.45;4.28;;;;;;;;;;5068383;28;20177;-67
2022/05/10 13:40:08;;;;;;;6.60;4.32;;;;;;;;;;5067914;28;20208;-70
2022/05/10 13:42:43;;;;;;;9.27;4.32;;;;;;;;;;5070471;28;20216;-68
2022/05/10 13:45:11;;;;;;;10.82;4.60;;;;;;;;;;5066077;28;20392;-68
2022/05/10 13:47:37;;;;;;;7.30;3.95;;;;;;;;;;5064869;28;20193;-69
2022/05/10 13:50:02;;;;;;;8.48;4.40;;;;;;;;;;5065310;28;20652;-69
2022/05/10 13:52:39;;;;;;;11.95;4.68;;;;;;;;;;5069951;28;20195;-69
2022/05/10 13:55:08;;;;;;;10.45;4.35;;;;;;;;;;5067113;28;20185;-69
2022/05/10 13:57:35;;;;;;;8.32;4.20;;;;;;;;;;5069896;28;20250;-67
2022/05/10 14:00:18;;;;;;;8.75;4.72;;;;;;;;;;5068787;28;20234;-67
2022/05/10 14:02:52;;;;;;;7.93;4.57;;;;;;;;;;4497844;28;10000978;-66
2022/05/10 14:05:21;;;;;;;9.90;4.75;;;;;;;;;;5066378;28;20536;-70
2022/05/10 14:07:47;;;;;;;8.15;4.30;;;;;;;;;;5065791;28;20273;-67
2022/05/10 14:10:15;;;;;;;9.00;4.63;;;;;;;;;;5064429;28;20305;-69
2022/05/10 14:12:53;;;;;;;6.45;4.50;;;;;;;;;;5065232;28;20199;-66
2022/05/10 14:15:31;;;;;;;8.25;4.80;;;;;;;;;;5056374;28;20623;-67
2022/05/10 14:18:06;;;;;;;12.15;4.90;;;;;;;;;;5062693;28;20184;-69
2022/05/10 14:20:35;;;;;;;6.97;4.47;;;;;;;;;;5059521;28;20216;-67
2022/05/10 14:23:04;;;;;;;13.15;4.72;;;;;;;;;;5062567;28;20343;-68
2022/05/10 14:25:32;;;;;;;8.23;4.70;;;;;;;;;;5062444;28;20230;-68
2022/05/10 14:28:16;;;;;;;8.57;4.80;;;;;;;;;;5064476;28;20680;-67
2022/05/10 14:30:48;;;;;;;7.38;5.13;;;;;;;;;;5063236;28;20614;-67
2022/05/10 14:33:37;;;;;;;7.95;4.47;;;;;;;;;;5061789;28;20204;-68
2022/05/10 14:36:07;;;;;;;8.20;5.20;;;;;;;;;;5041457;28;20228;-68
2022/05/10 14:38:33;;;;;;;10.52;4.80;;;;;;;;;;5059262;28;20250;-67
2022/05/10 14:40:59;;;;;;;12.77;4.97;;;;;;;;;;5063105;28;20227;-68
2022/05/10 14:43:39;;;;;;;7.03;4.75;;;;;;;;;;5063482;28;20713;-67
2022/05/10 14:46:26;;;;;;;10.18;4.75;;;;;;;;;;5063299;28;20659;-67
2022/05/10 14:49:01;;;;;;;7.40;5.18;;;;;;;;;;5060660;28;20499;-67
2022/05/10 14:51:45;;;;;;;9.05;4.63;;;;;;;;;;5060698;28;20184;-67
2022/05/10 14:54:13;;;;;;;13.25;5.05;;;;;;;;;;5064341;28;20598;-67
2022/05/10 14:56:46;;;;;;;11.63;4.65;;;;;;;;;;5063415;28;20367;-67
2022/05/10 15:02:34;;;;;;;9.15;4.72;;;;;;;;;;5066361;28;20742;-69
2022/05/10 15:05:10;;;;;;;8.18;4.75;;;;;;;;;;5062810;28;20196;-68
2022/05/10 15:07:35;;;;;;;9.80;5.32;;;;;;;;;;5063244;28;20666;-67
2022/05/10 15:10:01;;;;;;;7.85;4.95;;;;;;;;;;5058609;28;20543;-67
2022/05/10 15:15:11;;;;;;;6.97;5.18;;;;;;;;;;5059236;28;20554;-66
2022/05/10 15:20:22;;;;;;;8.35;5.90;;;;;;;;;;5059233;28;20274;-68
2022/05/10 15:22:47;;;;;;;7.13;5.28;;;;;;;;;;5057059;28;20213;-67
2022/05/10 15:25:13;;;;;;;6.63;4.93;;;;;;;;;;5060276;28;20223;-69
2022/05/10 15:27:38;;;;;;;7.82;5.38;;;;;;;;;;5061040;28;20594;-67